createdAt,value
2022-08-07T00:00:26.201Z,15.60
2022-08-07T00:02:55.977Z,15.60
2022-08-07T00:05:26.462Z,15.60
2022-08-07T00:07:59.647Z,15.60
2022-08-07T00:10:30.617Z,15.60
2022-08-07T00:13:02.204Z,15.50
2022-08-07T00:15:46.630Z,15.50
2022-08-07T00:18:24.303Z,15.40
2022-08-07T00:20:56.771Z,15.40
2022-08-07T00:23:28.473Z,15.30
2022-08-07T00:26:02.828Z,15.30
2022-08-07T00:28:46.000Z,15.30
2022-08-07T00:31:25.988Z,15.20
2022-08-07T00:34:09.187Z,15.10
2022-08-07T00:36:43.112Z,15.10
2022-08-07T00:39:17.103Z,15.00
2022-08-07T00:42:01.712Z,15.00
2022-08-07T00:44:41.375Z,15.00
2022-08-07T00:48:05.496Z,15.00
2022-08-07T00:50:20.157Z,14.90
2022-08-07T00:52:48.140Z,14.80
2022-08-07T00:55:17.299Z,14.80
2022-08-07T00:57:55.865Z,14.80
2022-08-07T01:00:24.921Z,14.70
2022-08-07T01:02:54.508Z,14.70
2022-08-07T01:05:24.580Z,14.70
2022-08-07T01:07:54.293Z,14.70
2022-08-07T01:10:23.468Z,14.70
2022-08-07T01:12:54.729Z,14.60
2022-08-07T01:15:36.016Z,14.60
2022-08-07T01:18:17.752Z,14.60
2022-08-07T01:20:57.481Z,14.60
2022-08-07T01:23:37.945Z,14.50
2022-08-07T01:26:13.101Z,14.60
2022-08-07T01:28:48.756Z,14.60
2022-08-07T01:31:41.673Z,14.60
2022-08-07T01:34:14.646Z,14.60
2022-08-07T01:36:44.848Z,14.50
2022-08-07T01:39:26.948Z,14.40
2022-08-07T01:42:40.180Z,14.40
2022-08-07T01:45:09.996Z,14.40
2022-08-07T01:48:19.744Z,14.40
2022-08-07T01:50:40.378Z,14.40
2022-08-07T01:53:20.967Z,14.30
2022-08-07T01:55:58.745Z,14.30
2022-08-07T01:58:33.632Z,14.20
2022-08-07T02:01:25.592Z,14.10
2022-08-07T02:04:12.915Z,14.10
2022-08-07T02:06:47.254Z,14.00
2022-08-07T02:09:33.455Z,14.00
2022-08-07T02:12:18.089Z,14.00
2022-08-07T02:14:56.004Z,14.00
2022-08-07T02:17:36.124Z,14.00
2022-08-07T02:20:09.954Z,14.00
2022-08-07T02:22:47.192Z,14.00
2022-08-07T02:26:10.564Z,13.90
2022-08-07T02:28:24.785Z,14.00
2022-08-07T02:30:55.752Z,14.10
2022-08-07T02:33:32.874Z,14.10
2022-08-07T02:36:29.163Z,14.00
2022-08-07T02:39:17.005Z,14.00
2022-08-07T02:41:59.821Z,14.00
2022-08-07T02:44:34.279Z,13.90
2022-08-07T02:47:06.594Z,13.90
2022-08-07T02:49:58.067Z,13.90
2022-08-07T02:52:40.241Z,13.90
2022-08-07T02:55:15.311Z,13.80
2022-08-07T02:58:00.023Z,13.80
2022-08-07T03:00:31.043Z,13.70
2022-08-07T03:03:05.974Z,13.70
2022-08-07T03:05:38.035Z,13.60
2022-08-07T03:08:10.295Z,13.60
2022-08-07T03:10:46.600Z,13.60
2022-08-07T03:13:20.440Z,13.50
2022-08-07T03:15:56.549Z,13.50
2022-08-07T03:18:34.534Z,13.50
2022-08-07T03:21:08.201Z,13.50
2022-08-07T03:24:19.375Z,13.50
2022-08-07T03:26:33.224Z,13.60
2022-08-07T03:29:10.436Z,13.60
2022-08-07T03:31:46.537Z,13.60
2022-08-07T03:34:22.153Z,13.50
2022-08-07T03:36:55.168Z,13.50
2022-08-07T03:39:45.717Z,13.40
2022-08-07T03:42:19.915Z,13.40
2022-08-07T03:44:53.633Z,13.30
2022-08-07T03:47:29.624Z,13.30
2022-08-07T03:50:17.458Z,13.30
2022-08-07T03:52:54.525Z,13.30
2022-08-07T03:55:23.456Z,13.30
2022-08-07T03:59:04.709Z,13.40
2022-08-07T04:00:46.580Z,13.40
2022-08-07T04:03:24.502Z,13.50
2022-08-07T04:05:58.734Z,13.50
2022-08-07T04:08:31.948Z,13.50
2022-08-07T04:12:21.123Z,13.50
2022-08-07T04:14:09.982Z,13.60
2022-08-07T04:16:43.250Z,13.60
2022-08-07T04:19:51.030Z,13.70
2022-08-07T04:22:17.975Z,13.80
2022-08-07T04:24:46.941Z,15.00
2022-08-07T04:27:25.143Z,16.00
2022-08-07T04:30:01.320Z,16.60
2022-08-07T04:32:38.968Z,17.10
2022-08-07T04:35:15.855Z,17.40
2022-08-07T04:38:02.842Z,17.60
2022-08-07T04:40:33.569Z,18.00
2022-08-07T04:43:03.586Z,18.50
2022-08-07T04:45:58.118Z,19.00
2022-08-07T04:48:39.788Z,19.30
2022-08-07T04:51:27.244Z,19.70
2022-08-07T04:54:06.334Z,19.30
2022-08-07T04:58:11.091Z,18.60
2022-08-07T05:00:12.728Z,18.20
2022-08-07T05:02:33.263Z,17.70
2022-08-07T05:05:12.018Z,17.30
2022-08-07T05:08:02.292Z,17.10
2022-08-07T05:10:37.854Z,16.90
2022-08-07T05:14:52.822Z,16.80
2022-08-07T05:16:04.739Z,16.60
2022-08-07T05:18:36.392Z,16.50
2022-08-07T05:21:10.834Z,16.50
2022-08-07T05:23:49.228Z,16.50
2022-08-07T05:26:24.302Z,16.40
2022-08-07T05:29:05.786Z,16.40
2022-08-07T05:31:39.614Z,16.30
2022-08-07T05:34:15.766Z,16.20
2022-08-07T05:36:49.198Z,16.20
2022-08-07T05:40:18.442Z,16.10
2022-08-07T05:42:33.693Z,16.00
2022-08-07T05:45:14.269Z,15.90
2022-08-07T05:48:01.185Z,15.80
2022-08-07T05:50:34.305Z,15.80
2022-08-07T05:53:04.117Z,15.80
2022-08-07T05:56:03.018Z,15.80
2022-08-07T05:58:36.853Z,15.70
2022-08-07T06:01:10.704Z,15.70
2022-08-07T06:03:57.015Z,15.70
2022-08-07T06:06:36.106Z,15.70
2022-08-07T06:09:07.438Z,15.80
2022-08-07T06:11:40.986Z,15.80
2022-08-07T06:14:21.206Z,15.80
2022-08-07T06:16:57.132Z,15.90
2022-08-07T06:19:52.298Z,16.10
2022-08-07T06:22:27.128Z,16.20
2022-08-07T06:25:34.864Z,16.20
2022-08-07T06:28:08.460Z,16.30
2022-08-07T06:30:45.635Z,16.40
2022-08-07T06:33:19.595Z,16.60
2022-08-07T06:36:13.326Z,16.70
2022-08-07T06:38:59.569Z,16.70
2022-08-07T06:42:03.010Z,16.80
2022-08-07T06:44:45.999Z,16.90
2022-08-07T06:47:24.044Z,17.10
2022-08-07T06:49:58.609Z,17.10
2022-08-07T06:52:36.446Z,17.20
2022-08-07T06:55:33.377Z,17.40
2022-08-07T06:58:04.304Z,17.50
2022-08-07T07:00:42.627Z,17.60
2022-08-07T07:03:13.911Z,17.80
2022-08-07T07:06:05.180Z,17.90
2022-08-07T07:08:35.487Z,18.00
2022-08-07T07:11:14.043Z,18.00
2022-08-07T07:14:02.241Z,18.20
2022-08-07T07:16:45.247Z,18.20
2022-08-07T07:19:55.776Z,18.20
2022-08-07T07:22:36.301Z,18.30
2022-08-07T07:25:14.220Z,18.50
2022-08-07T07:27:55.692Z,18.60
2022-08-07T07:30:38.495Z,18.80
2022-08-07T07:33:12.271Z,18.80
2022-08-07T07:36:04.087Z,19.00
2022-08-07T07:38:34.891Z,19.10
2022-08-07T07:41:08.914Z,19.20
2022-08-07T07:43:48.055Z,19.30
2022-08-07T07:46:36.691Z,19.50
2022-08-07T07:50:35.521Z,19.60
2022-08-07T07:52:16.132Z,19.70
2022-08-07T07:54:51.363Z,19.90
2022-08-07T07:57:51.882Z,19.90
2022-08-07T08:00:14.903Z,19.90
2022-08-07T08:03:06.301Z,20.00
2022-08-07T08:05:50.943Z,20.10
2022-08-07T08:08:35.471Z,20.40
2022-08-07T08:11:08.506Z,20.60
2022-08-07T08:13:54.592Z,20.80
2022-08-07T08:16:30.986Z,21.00
2022-08-07T08:19:17.823Z,21.20
2022-08-07T08:22:11.747Z,21.30
2022-08-07T08:25:18.466Z,21.30
2022-08-07T08:27:56.205Z,21.50
2022-08-07T08:30:30.134Z,21.60
2022-08-07T08:33:03.038Z,21.70
2022-08-07T08:35:39.560Z,21.80
2022-08-07T08:38:29.610Z,21.80
2022-08-07T08:41:05.175Z,21.80
2022-08-07T08:43:42.052Z,21.90
2022-08-07T08:46:17.908Z,21.90
2022-08-07T08:48:58.633Z,21.80
2022-08-07T08:52:01.124Z,21.80
2022-08-07T08:54:44.150Z,21.90
2022-08-07T08:57:24.113Z,22.10
2022-08-07T08:59:57.914Z,22.20
2022-08-07T09:02:41.896Z,22.20
2022-08-07T09:05:36.699Z,21.90
2022-08-07T09:08:28.487Z,21.80
2022-08-07T09:11:24.332Z,21.90
2022-08-07T09:14:11.524Z,22.00
2022-08-07T09:16:51.102Z,22.20
2022-08-07T09:19:53.164Z,22.10
2022-08-07T09:24:33.366Z,22.10
2022-08-07T09:25:18.011Z,22.10
2022-08-07T09:28:00.623Z,22.10
2022-08-07T09:30:54.538Z,22.10
2022-08-07T09:33:52.423Z,22.30
2022-08-07T09:36:37.080Z,22.50
2022-08-07T09:39:55.594Z,22.50
2022-08-07T09:42:24.957Z,22.50
2022-08-07T09:47:27.625Z,22.70
2022-08-07T09:48:12.218Z,22.80
2022-08-07T09:50:55.747Z,22.90
2022-08-07T09:53:27.270Z,22.90
2022-08-07T09:56:44.416Z,22.80
2022-08-07T09:59:46.700Z,22.90
2022-08-07T10:04:06.579Z,23.00
2022-08-07T10:06:40.565Z,23.10
2022-08-07T10:09:59.300Z,23.00
2022-08-07T10:13:05.830Z,23.10
2022-08-07T10:15:59.062Z,23.10
2022-08-07T10:19:11.044Z,23.00
2022-08-07T10:22:15.923Z,22.90
2022-08-07T10:25:01.693Z,23.10
2022-08-07T10:27:47.456Z,23.40
2022-08-07T10:30:21.284Z,23.50
2022-08-07T10:33:15.454Z,23.60
2022-08-07T10:36:10.901Z,23.90
2022-08-07T10:38:52.849Z,23.90
2022-08-07T10:41:46.473Z,24.00
2022-08-07T10:44:37.579Z,24.10
2022-08-07T10:47:27.001Z,24.10
2022-08-07T10:50:15.633Z,23.90
2022-08-07T10:53:05.191Z,23.90
2022-08-07T10:55:46.289Z,24.10
2022-08-07T10:58:33.022Z,24.30
2022-08-07T11:01:23.809Z,24.40
2022-08-07T11:04:16.940Z,24.50
2022-08-07T11:06:59.486Z,24.50
2022-08-07T11:10:07.302Z,24.70
2022-08-07T11:12:32.211Z,24.70
2022-08-07T11:15:14.608Z,24.80
2022-08-07T11:17:54.119Z,24.60
2022-08-07T11:20:32.105Z,24.30
2022-08-07T11:23:09.245Z,24.40
2022-08-07T11:25:47.914Z,24.70
2022-08-07T11:28:24.904Z,24.90
2022-08-07T11:30:58.852Z,25.00
2022-08-07T11:33:59.190Z,25.10
2022-08-07T11:36:40.063Z,25.10
2022-08-07T11:39:20.656Z,25.00
2022-08-07T11:42:00.463Z,24.80
2022-08-07T11:44:52.399Z,24.80
2022-08-07T11:47:55.979Z,25.00
2022-08-07T11:50:44.723Z,25.10
2022-08-07T11:53:43.202Z,24.90
2022-08-07T11:56:46.365Z,24.50
2022-08-07T12:00:12.561Z,24.60
2022-08-07T12:03:02.192Z,24.50
2022-08-07T12:05:49.094Z,24.50
2022-08-07T12:08:25.936Z,24.40
2022-08-07T12:11:20.269Z,24.60
2022-08-07T12:13:58.102Z,24.80
2022-08-07T12:16:30.893Z,24.90
2022-08-07T12:19:10.654Z,25.00
2022-08-07T12:22:36.985Z,24.90
2022-08-07T12:25:07.819Z,24.80
2022-08-07T12:28:03.946Z,24.80
2022-08-07T12:30:35.317Z,25.00
2022-08-07T12:33:23.432Z,25.10
2022-08-07T12:36:00.918Z,24.90
2022-08-07T12:38:42.991Z,24.70
2022-08-07T12:41:17.312Z,24.80
2022-08-07T12:44:03.749Z,24.90
2022-08-07T12:46:52.040Z,25.00
2022-08-07T12:49:48.916Z,25.20
2022-08-07T12:52:28.903Z,25.50
2022-08-07T12:55:09.692Z,25.70
2022-08-07T12:58:00.864Z,25.90
2022-08-07T13:00:49.699Z,26.00
2022-08-07T13:04:02.120Z,25.70
2022-08-07T13:06:54.463Z,25.80
2022-08-07T13:10:19.844Z,25.70
2022-08-07T13:12:38.301Z,25.60
2022-08-07T13:15:23.573Z,25.60
2022-08-07T13:18:06.626Z,25.60
2022-08-07T13:20:44.632Z,25.80
2022-08-07T13:24:01.872Z,25.90
2022-08-07T13:26:15.846Z,26.00
2022-08-07T13:28:52.450Z,26.00
2022-08-07T13:31:46.041Z,26.00
2022-08-07T13:34:33.278Z,25.90
2022-08-07T13:37:10.889Z,26.00
2022-08-07T13:40:35.804Z,25.90
2022-08-07T13:43:11.761Z,25.80
2022-08-07T13:46:11.711Z,25.60
2022-08-07T13:48:35.196Z,25.50
2022-08-07T13:51:26.863Z,25.60
2022-08-07T13:54:02.020Z,25.80
2022-08-07T13:56:41.139Z,25.80
2022-08-07T13:59:22.896Z,25.80
2022-08-07T14:02:04.587Z,25.80
2022-08-07T14:04:49.000Z,25.90
2022-08-07T14:07:23.003Z,25.90
2022-08-07T14:10:16.413Z,25.90
2022-08-07T14:12:55.687Z,25.90
2022-08-07T14:15:35.014Z,25.70
2022-08-07T14:18:24.256Z,25.80
2022-08-07T14:22:41.082Z,25.70
2022-08-07T14:24:00.943Z,25.60
2022-08-07T14:26:39.088Z,25.50
2022-08-07T14:32:05.324Z,25.70
2022-08-07T14:34:46.003Z,25.80
2022-08-07T14:37:17.673Z,25.90
2022-08-07T14:43:01.153Z,25.90
2022-08-07T14:45:47.144Z,25.90
2022-08-07T14:48:20.174Z,26.00
2022-08-07T14:50:51.631Z,26.00
2022-08-07T14:54:05.851Z,26.00
2022-08-07T14:56:14.164Z,26.00
2022-08-07T14:58:48.059Z,25.90
2022-08-07T15:01:24.616Z,25.80
2022-08-07T15:04:05.589Z,25.80
2022-08-07T15:06:35.564Z,25.80
2022-08-07T15:09:57.782Z,25.70
2022-08-07T15:12:02.562Z,25.80
2022-08-07T15:14:55.971Z,25.70
2022-08-07T15:17:32.623Z,25.50
2022-08-07T15:20:33.292Z,25.50
2022-08-07T15:23:17.080Z,25.50
2022-08-07T15:25:55.740Z,25.60
2022-08-07T15:28:31.184Z,25.70
2022-08-07T15:31:07.380Z,25.60
2022-08-07T15:33:42.809Z,25.50
2022-08-07T15:36:11.887Z,25.40
2022-08-07T15:38:59.375Z,25.40
2022-08-07T15:44:23.591Z,25.30
2022-08-07T15:46:58.742Z,25.40
2022-08-07T15:50:05.297Z,25.50
2022-08-07T15:52:30.526Z,25.60
2022-08-07T15:55:03.413Z,25.50
2022-08-07T15:57:47.739Z,25.60
2022-08-07T16:00:32.157Z,25.70
2022-08-07T16:03:05.214Z,25.70
2022-08-07T16:05:36.143Z,25.70
2022-08-07T16:08:33.520Z,25.70
2022-08-07T16:11:04.162Z,25.80
2022-08-07T16:14:03.239Z,25.80
2022-08-07T16:16:51.157Z,25.90
2022-08-07T16:19:59.795Z,25.90
2022-08-07T16:22:54.956Z,25.90
2022-08-07T16:25:54.405Z,26.00
2022-08-07T16:29:18.458Z,26.00
2022-08-07T16:31:51.783Z,26.10
2022-08-07T16:34:33.927Z,26.20
2022-08-07T16:38:06.318Z,26.10
2022-08-07T16:41:17.994Z,26.20
2022-08-07T16:44:40.484Z,26.30
2022-08-07T16:47:51.122Z,26.30
2022-08-07T16:50:39.308Z,26.30
2022-08-07T16:54:02.837Z,26.40
2022-08-07T16:56:38.925Z,26.50
2022-08-07T16:59:17.303Z,26.50
2022-08-07T17:02:02.906Z,26.50
2022-08-07T17:04:57.445Z,26.50
2022-08-07T17:07:55.430Z,26.40
2022-08-07T17:10:35.590Z,26.40
2022-08-07T17:13:41.428Z,26.50
2022-08-07T17:16:25.904Z,26.60
2022-08-07T17:19:15.811Z,26.40
2022-08-07T17:21:51.534Z,26.50
2022-08-07T17:24:43.932Z,26.60
2022-08-07T17:27:20.169Z,26.60
2022-08-07T17:30:14.948Z,26.70
2022-08-07T17:34:09.669Z,26.70
2022-08-07T17:36:20.560Z,26.60
2022-08-07T17:38:57.926Z,26.50
2022-08-07T17:42:03.635Z,26.50
2022-08-07T17:44:50.374Z,26.40
2022-08-07T17:47:38.045Z,26.20
2022-08-07T17:50:19.397Z,26.10
2022-08-07T17:52:55.235Z,26.00
2022-08-07T17:55:54.928Z,25.90
2022-08-07T17:58:31.204Z,25.80
2022-08-07T18:01:20.516Z,25.70
2022-08-07T18:04:07.220Z,25.60
2022-08-07T18:06:42.971Z,25.60
2022-08-07T18:09:19.387Z,25.60
2022-08-07T18:12:28.478Z,25.50
2022-08-07T18:15:08.859Z,25.40
2022-08-07T18:18:47.225Z,25.30
2022-08-07T18:21:08.288Z,25.10
2022-08-07T18:23:46.803Z,24.90
2022-08-07T18:26:40.512Z,24.70
2022-08-07T18:30:06.080Z,24.50
2022-08-07T18:32:22.261Z,24.30
2022-08-07T18:35:10.526Z,24.20
2022-08-07T18:38:58.401Z,24.10
2022-08-07T18:41:17.170Z,23.90
2022-08-07T18:43:57.354Z,23.80
2022-08-07T18:46:32.957Z,23.70
2022-08-07T18:50:19.056Z,23.60
2022-08-07T18:52:52.938Z,23.50
2022-08-07T18:55:41.756Z,23.30
2022-08-07T18:58:20.118Z,23.20
2022-08-07T19:01:02.202Z,23.20
2022-08-07T19:03:37.746Z,23.10
2022-08-07T19:06:10.005Z,22.90
2022-08-07T19:09:09.019Z,22.70
2022-08-07T19:12:05.202Z,22.50
2022-08-07T19:15:02.332Z,22.40
2022-08-07T19:18:03.302Z,22.20
2022-08-07T19:20:39.754Z,22.00
2022-08-07T19:23:58.135Z,21.90
2022-08-07T19:26:29.114Z,21.70
2022-08-07T19:31:03.461Z,21.70
2022-08-07T19:32:07.732Z,21.60
2022-08-07T19:34:48.064Z,21.50
2022-08-07T19:37:20.113Z,21.30
2022-08-07T19:40:01.844Z,21.20
2022-08-07T19:42:40.588Z,21.10
2022-08-07T19:46:00.974Z,21.00
2022-08-07T19:48:18.628Z,20.80
2022-08-07T19:50:53.627Z,20.60
2022-08-07T19:54:34.190Z,20.50
2022-08-07T19:57:52.309Z,20.40
2022-08-07T19:59:08.565Z,20.40
2022-08-07T20:01:52.803Z,20.30
2022-08-07T20:04:37.711Z,20.30
2022-08-07T20:07:10.110Z,20.40
2022-08-07T20:10:33.635Z,20.30
2022-08-07T20:12:35.862Z,20.30
2022-08-07T20:15:18.762Z,20.20
2022-08-07T20:17:56.299Z,20.10
2022-08-07T20:20:33.709Z,20.10
2022-08-07T20:23:22.861Z,20.10
2022-08-07T20:25:55.037Z,20.00
2022-08-07T20:28:29.983Z,19.90
2022-08-07T20:31:02.668Z,19.70
2022-08-07T20:33:37.658Z,19.70
2022-08-07T20:36:09.058Z,19.70
2022-08-07T20:38:53.285Z,19.70
2022-08-07T20:41:34.157Z,19.70
2022-08-07T20:44:12.896Z,19.60
2022-08-07T20:46:46.658Z,19.60
2022-08-07T20:49:59.820Z,19.60
2022-08-07T20:52:16.548Z,19.60
2022-08-07T20:54:53.906Z,19.50
2022-08-07T20:57:25.774Z,19.40
2022-08-07T21:00:06.970Z,19.30
2022-08-07T21:03:01.272Z,19.20
2022-08-07T21:05:52.897Z,19.10
2022-08-07T21:08:33.347Z,18.90
2022-08-07T21:11:10.867Z,18.80
2022-08-07T21:14:16.678Z,18.70
2022-08-07T21:17:06.532Z,18.70
2022-08-07T21:19:51.441Z,18.70
2022-08-07T21:22:30.936Z,18.60
2022-08-07T21:25:13.441Z,18.50
2022-08-07T21:28:01.827Z,18.40
2022-08-07T21:30:41.906Z,18.30
2022-08-07T21:33:18.652Z,18.20
2022-08-07T21:36:05.376Z,18.10
2022-08-07T21:38:50.102Z,18.00
2022-08-07T21:41:25.649Z,18.00
2022-08-07T21:43:58.376Z,18.00
2022-08-07T21:46:36.375Z,18.00
2022-08-07T21:49:14.959Z,17.90
2022-08-07T21:51:57.584Z,17.90
2022-08-07T21:54:34.061Z,18.00
2022-08-07T21:57:16.158Z,17.90
2022-08-07T22:00:09.328Z,17.90
2022-08-07T22:02:57.921Z,17.80
2022-08-07T22:05:46.296Z,17.80
2022-08-07T22:08:21.402Z,17.70
2022-08-07T22:10:55.854Z,17.60
2022-08-07T22:13:53.012Z,17.50
2022-08-07T22:16:42.256Z,17.50
2022-08-07T22:19:09.741Z,17.40
2022-08-07T22:22:02.812Z,17.30
2022-08-07T22:24:38.689Z,17.20
2022-08-07T22:27:13.672Z,17.20
2022-08-07T22:33:56.693Z,17.20
2022-08-07T22:36:38.479Z,17.10
2022-08-07T22:39:23.437Z,17.10
2022-08-07T22:42:19.108Z,17.00
2022-08-07T22:44:58.259Z,17.00
2022-08-07T22:47:43.837Z,16.90
2022-08-07T22:50:33.704Z,16.80
2022-08-07T22:53:26.811Z,16.80
2022-08-07T22:56:09.387Z,16.80
2022-08-07T22:59:01.254Z,16.80
2022-08-07T23:01:59.020Z,17.00
2022-08-07T23:04:57.892Z,17.10
2022-08-07T23:08:05.820Z,17.10
2022-08-07T23:10:56.592Z,17.20
2022-08-07T23:14:15.071Z,17.10
2022-08-07T23:17:04.918Z,17.00
2022-08-07T23:20:06.864Z,16.80
2022-08-07T23:22:47.345Z,16.60
2022-08-07T23:25:29.506Z,16.50
2022-08-07T23:28:28.673Z,16.40
2022-08-07T23:31:18.810Z,16.40
2022-08-07T23:34:37.283Z,16.20
2022-08-07T23:37:22.342Z,16.10
2022-08-07T23:40:07.557Z,16.00
2022-08-07T23:42:54.533Z,16.00
2022-08-07T23:50:07.572Z,16.00
2022-08-07T23:53:11.960Z,15.90
2022-08-07T23:55:52.889Z,15.80
2022-08-07T23:58:28.012Z,15.80
